DLH309 LICC-EDDF
Flight info
| Callsign | DLH309 |
|---|---|
| Flight time | 2h 6m |
| Altitude | 34000 |
| Route | PEKO5K BUDIN DCT DIRED DCT GIKEB DCT BRENO DCT KONIN DCT ERNAS T161 DEBHI DEBHI1B |
| Aircraft | A321/M-SDE3FGHIRWY/LB1 |
Departure
| Time | 2026-05-06 16:19 |
|---|---|
| Airport | Catania-Fontanarossa Airport (LICC) |
Arrival
| Time | 2026-05-06 18:26 |
|---|---|
| Airport | Frankfurt Main Airport (EDDF) |
| Time | Latitude | Longitude | Altitude | Speed | Heading |
|---|---|---|---|---|---|
| 2026-05-06 15:51 | 37.46930 | 15.06573 | 51 ft | 0 kts | 20° |
| 2026-05-06 16:11 | 37.46920 | 15.06569 | 49 ft | 4 kts | 21° |
| 2026-05-06 16:12 | 37.46895 | 15.06557 | 49 ft | 4 kts | 13° |
| 2026-05-06 16:12 | 37.46869 | 15.06552 | 51 ft | 4 kts | 354° |
| 2026-05-06 16:12 | 37.46846 | 15.06562 | 49 ft | 4 kts | 305° |
| 2026-05-06 16:12 | 37.46840 | 15.06589 | 51 ft | 2 kts | 264° |
| 2026-05-06 16:13 | 37.46840 | 15.06590 | 51 ft | 0 kts | 264° |
| 2026-05-06 16:15 | 37.46840 | 15.06589 | 51 ft | 1 kts | 264° |
| 2026-05-06 16:15 | 37.46839 | 15.06579 | 51 ft | 2 kts | 264° |
| 2026-05-06 16:15 | 37.46835 | 15.06531 | 51 ft | 7 kts | 264° |
| 2026-05-06 16:16 | 37.46829 | 15.06458 | 51 ft | 10 kts | 264° |
| 2026-05-06 16:16 | 37.46819 | 15.06351 | 51 ft | 14 kts | 263° |
| 2026-05-06 16:16 | 37.46807 | 15.06209 | 48 ft | 18 kts | 264° |
| 2026-05-06 16:16 | 37.46793 | 15.06034 | 49 ft | 21 kts | 263° |
| 2026-05-06 16:17 | 37.46777 | 15.05850 | 49 ft | 21 kts | 264° |
| 2026-05-06 16:17 | 37.46762 | 15.05667 | 51 ft | 21 kts | 264° |
| 2026-05-06 16:17 | 37.46748 | 15.05507 | 48 ft | 18 kts | 263° |
| 2026-05-06 16:17 | 37.46735 | 15.05360 | 48 ft | 15 kts | 259° |
| 2026-05-06 16:18 | 37.46670 | 15.05256 | 51 ft | 16 kts | 223° |
| 2026-05-06 16:18 | 37.46599 | 15.05190 | 51 ft | 11 kts | 194° |
| 2026-05-06 16:18 | 37.46562 | 15.05246 | 51 ft | 10 kts | 86° |
| 2026-05-06 16:18 | 37.46567 | 15.05337 | 50 ft | 11 kts | 84° |
| 2026-05-06 16:19 | 37.46586 | 15.05550 | 50 ft | 55 kts | 84° |
| 2026-05-06 16:19 | 37.46650 | 15.06311 | 52 ft | 118 kts | 84° |
| 2026-05-06 16:19 | 37.46753 | 15.07547 | 209 ft | 153 kts | 84° |
| 2026-05-06 16:19 | 37.46855 | 15.08789 | 1113 ft | 140 kts | 83° |
| 2026-05-06 16:20 | 37.47020 | 15.10032 | 1732 ft | 150 kts | 84° |
| 2026-05-06 16:20 | 37.47201 | 15.11342 | 2116 ft | 160 kts | 84° |
| 2026-05-06 16:20 | 37.47398 | 15.12780 | 2420 ft | 172 kts | 84° |
| 2026-05-06 16:20 | 37.47612 | 15.14349 | 2637 ft | 190 kts | 83° |
| 2026-05-06 16:21 | 37.47846 | 15.16040 | 2927 ft | 201 kts | 85° |
| 2026-05-06 16:21 | 37.48090 | 15.17791 | 3375 ft | 206 kts | 85° |
| 2026-05-06 16:21 | 37.48339 | 15.19588 | 3753 ft | 214 kts | 83° |
| 2026-05-06 16:21 | 37.48599 | 15.21470 | 4087 ft | 222 kts | 84° |
| 2026-05-06 16:22 | 37.48868 | 15.23431 | 4367 ft | 234 kts | 84° |
| 2026-05-06 16:22 | 37.49150 | 15.25491 | 4775 ft | 246 kts | 82° |
| 2026-05-06 16:22 | 37.49668 | 15.27593 | 5074 ft | 263 kts | 65° |
| 2026-05-06 16:22 | 37.50733 | 15.29522 | 5471 ft | 277 kts | 46° |
| 2026-05-06 16:23 | 37.52293 | 15.31007 | 5942 ft | 286 kts | 32° |
| 2026-05-06 16:23 | 37.54004 | 15.32316 | 6502 ft | 290 kts | 32° |
| 2026-05-06 16:23 | 37.55730 | 15.33655 | 7057 ft | 293 kts | 32° |
| 2026-05-06 16:23 | 37.57464 | 15.35012 | 7621 ft | 295 kts | 33° |
| 2026-05-06 16:24 | 37.59221 | 15.36391 | 8169 ft | 299 kts | 32° |
| 2026-05-06 16:24 | 37.60995 | 15.37784 | 8723 ft | 302 kts | 32° |
| 2026-05-06 16:24 | 37.62760 | 15.39168 | 9295 ft | 304 kts | 32° |
| 2026-05-06 16:24 | 37.64566 | 15.40586 | 9867 ft | 306 kts | 32° |
| 2026-05-06 16:25 | 37.66395 | 15.42022 | 10240 ft | 317 kts | 32° |
| 2026-05-06 16:25 | 37.68369 | 15.43427 | 10363 ft | 335 kts | 23° |
| 2026-05-06 16:25 | 37.70631 | 15.44356 | 10488 ft | 350 kts | 10° |
| 2026-05-06 16:25 | 37.73094 | 15.44643 | 10677 ft | 361 kts | 356° |
| 2026-05-06 16:26 | 37.75591 | 15.44216 | 11090 ft | 364 kts | 343° |
| 2026-05-06 16:26 | 37.77976 | 15.43155 | 11570 ft | 364 kts | 336° |
| 2026-05-06 16:26 | 37.80341 | 15.41969 | 12089 ft | 367 kts | 336° |
| 2026-05-06 16:26 | 37.82687 | 15.40794 | 12587 ft | 369 kts | 336° |
| 2026-05-06 16:27 | 37.85079 | 15.39597 | 13110 ft | 371 kts | 336° |
| 2026-05-06 16:27 | 37.87487 | 15.38395 | 13608 ft | 373 kts | 336° |
| 2026-05-06 16:27 | 37.89909 | 15.37185 | 14096 ft | 375 kts | 335° |
| 2026-05-06 16:27 | 37.92345 | 15.35969 | 14538 ft | 377 kts | 335° |
| 2026-05-06 16:28 | 37.94796 | 15.34741 | 14953 ft | 380 kts | 335° |
| 2026-05-06 16:28 | 37.97262 | 15.33502 | 15394 ft | 382 kts | 335° |
| 2026-05-06 16:28 | 37.99743 | 15.32254 | 15849 ft | 384 kts | 335° |
| 2026-05-06 16:28 | 38.02199 | 15.31017 | 16271 ft | 387 kts | 335° |
| 2026-05-06 16:29 | 38.04716 | 15.29752 | 16708 ft | 390 kts | 335° |
| 2026-05-06 16:29 | 38.07248 | 15.28480 | 17114 ft | 394 kts | 335° |
| 2026-05-06 16:29 | 38.09805 | 15.27195 | 17508 ft | 396 kts | 335° |
| 2026-05-06 16:29 | 38.12375 | 15.25901 | 17913 ft | 398 kts | 334° |
| 2026-05-06 16:30 | 38.14959 | 15.24597 | 18308 ft | 401 kts | 334° |
| 2026-05-06 16:30 | 38.16679 | 15.23726 | 18527 ft | 402 kts | 334° |
| 2026-05-06 16:30 | 38.20132 | 15.21976 | 18986 ft | 405 kts | 334° |
| 2026-05-06 16:30 | 38.22754 | 15.20649 | 19303 ft | 407 kts | 334° |
| 2026-05-06 16:31 | 38.25386 | 15.19314 | 19652 ft | 408 kts | 334° |
| 2026-05-06 16:31 | 38.28032 | 15.17967 | 19995 ft | 410 kts | 334° |
| 2026-05-06 16:31 | 38.30688 | 15.16612 | 20329 ft | 412 kts | 334° |
| 2026-05-06 16:31 | 38.33355 | 15.15255 | 20657 ft | 414 kts | 334° |
| 2026-05-06 16:32 | 38.36035 | 15.13894 | 20987 ft | 416 kts | 334° |
| 2026-05-06 16:32 | 38.38734 | 15.12527 | 21293 ft | 419 kts | 334° |
| 2026-05-06 16:32 | 38.41444 | 15.11151 | 21592 ft | 421 kts | 334° |
| 2026-05-06 16:32 | 38.44132 | 15.09781 | 21902 ft | 423 kts | 334° |
| 2026-05-06 16:33 | 38.46869 | 15.08382 | 22221 ft | 424 kts | 334° |
| 2026-05-06 16:33 | 38.49616 | 15.06978 | 22528 ft | 426 kts | 334° |
| 2026-05-06 16:33 | 38.52377 | 15.05567 | 22839 ft | 428 kts | 334° |
| 2026-05-06 16:34 | 38.57932 | 15.02729 | 23456 ft | 432 kts | 334° |
| 2026-05-06 16:34 | 38.60729 | 15.01298 | 23727 ft | 434 kts | 334° |
| 2026-05-06 16:34 | 38.63534 | 14.99861 | 24004 ft | 435 kts | 334° |
| 2026-05-06 16:34 | 38.66344 | 14.98421 | 24275 ft | 436 kts | 334° |
| 2026-05-06 16:35 | 38.69122 | 14.96995 | 24541 ft | 437 kts | 334° |
| 2026-05-06 16:35 | 38.71948 | 14.95543 | 24820 ft | 438 kts | 334° |
| 2026-05-06 16:35 | 38.74777 | 14.94088 | 25081 ft | 439 kts | 334° |
| 2026-05-06 16:35 | 38.77612 | 14.92628 | 25354 ft | 440 kts | 334° |
| 2026-05-06 16:36 | 38.80447 | 14.91168 | 25683 ft | 439 kts | 333° |
| 2026-05-06 16:36 | 38.83284 | 14.89709 | 25990 ft | 439 kts | 333° |
| 2026-05-06 16:36 | 38.86119 | 14.88246 | 26249 ft | 440 kts | 333° |
| 2026-05-06 16:36 | 38.88966 | 14.86774 | 26472 ft | 442 kts | 333° |
| 2026-05-06 16:37 | 38.91823 | 14.85297 | 26713 ft | 443 kts | 333° |
| 2026-05-06 16:37 | 38.94690 | 14.83816 | 26956 ft | 445 kts | 333° |
| 2026-05-06 16:37 | 38.97525 | 14.82348 | 27194 ft | 446 kts | 333° |
| 2026-05-06 16:37 | 39.00403 | 14.80855 | 27429 ft | 447 kts | 333° |
| 2026-05-06 16:38 | 39.03290 | 14.79356 | 27667 ft | 448 kts | 333° |
| 2026-05-06 16:38 | 39.06188 | 14.77854 | 27902 ft | 449 kts | 333° |
| 2026-05-06 16:38 | 39.09092 | 14.76351 | 28151 ft | 451 kts | 333° |
| 2026-05-06 16:38 | 39.12010 | 14.74838 | 28317 ft | 453 kts | 333° |
| 2026-05-06 16:39 | 39.14938 | 14.73315 | 28504 ft | 455 kts | 333° |
| 2026-05-06 16:39 | 39.17877 | 14.71784 | 28728 ft | 456 kts | 333° |
| 2026-05-06 16:39 | 39.20781 | 14.70271 | 28917 ft | 457 kts | 333° |
| 2026-05-06 16:39 | 39.23732 | 14.68728 | 29116 ft | 458 kts | 333° |
| 2026-05-06 16:40 | 39.26689 | 14.67184 | 29293 ft | 459 kts | 333° |
| 2026-05-06 16:40 | 39.29653 | 14.65636 | 29470 ft | 460 kts | 333° |
| 2026-05-06 16:40 | 39.32617 | 14.64085 | 29710 ft | 459 kts | 333° |
| 2026-05-06 16:40 | 39.35577 | 14.62532 | 29929 ft | 459 kts | 333° |
| 2026-05-06 16:41 | 39.38537 | 14.60976 | 30142 ft | 459 kts | 333° |
| 2026-05-06 16:41 | 39.41494 | 14.59423 | 30350 ft | 458 kts | 333° |
| 2026-05-06 16:41 | 39.44405 | 14.57892 | 30555 ft | 457 kts | 333° |
| 2026-05-06 16:41 | 39.47348 | 14.56343 | 30766 ft | 457 kts | 333° |
| 2026-05-06 16:42 | 39.50290 | 14.54794 | 30972 ft | 456 kts | 333° |
| 2026-05-06 16:42 | 39.53221 | 14.53250 | 31179 ft | 455 kts | 333° |
| 2026-05-06 16:42 | 39.56157 | 14.51722 | 31399 ft | 455 kts | 334° |
| 2026-05-06 16:42 | 39.59188 | 14.50469 | 31539 ft | 459 kts | 337° |
| 2026-05-06 16:43 | 39.62245 | 14.49269 | 31703 ft | 459 kts | 338° |
| 2026-05-06 16:43 | 39.65302 | 14.48074 | 31883 ft | 459 kts | 338° |
| 2026-05-06 16:43 | 39.68314 | 14.46898 | 32080 ft | 458 kts | 337° |
| 2026-05-06 16:43 | 39.71367 | 14.45702 | 32269 ft | 457 kts | 337° |
| 2026-05-06 16:44 | 39.74410 | 14.44504 | 32464 ft | 457 kts | 337° |
| 2026-05-06 16:44 | 39.77447 | 14.43307 | 32657 ft | 456 kts | 337° |
| 2026-05-06 16:44 | 39.80479 | 14.42111 | 32846 ft | 455 kts | 337° |
| 2026-05-06 16:44 | 39.83508 | 14.40916 | 33034 ft | 454 kts | 337° |
| 2026-05-06 16:45 | 39.86529 | 14.39722 | 33221 ft | 454 kts | 337° |
| 2026-05-06 16:45 | 39.89547 | 14.38524 | 33408 ft | 453 kts | 337° |
| 2026-05-06 16:45 | 39.92563 | 14.37330 | 33591 ft | 452 kts | 337° |
| 2026-05-06 16:45 | 39.95530 | 14.36156 | 33770 ft | 452 kts | 337° |
| 2026-05-06 16:46 | 39.98536 | 14.34967 | 33944 ft | 451 kts | 337° |
| 2026-05-06 16:46 | 40.04536 | 14.32587 | 33987 ft | 451 kts | 337° |
| 2026-05-06 16:47 | 40.10537 | 14.30194 | 33989 ft | 451 kts | 337° |
| 2026-05-06 16:47 | 40.16537 | 14.27806 | 33994 ft | 451 kts | 337° |
| 2026-05-06 16:48 | 40.22495 | 14.25429 | 33997 ft | 451 kts | 337° |
| 2026-05-06 16:48 | 40.28492 | 14.23022 | 34010 ft | 451 kts | 336° |
| 2026-05-06 16:49 | 40.34509 | 14.20615 | 34015 ft | 453 kts | 336° |
| 2026-05-06 16:49 | 40.40538 | 14.18195 | 34016 ft | 453 kts | 336° |
| 2026-05-06 16:50 | 40.46533 | 14.15782 | 34019 ft | 454 kts | 336° |
| 2026-05-06 16:50 | 40.52579 | 14.13347 | 34028 ft | 455 kts | 336° |
| 2026-05-06 16:51 | 40.58636 | 14.10907 | 34028 ft | 455 kts | 336° |
| 2026-05-06 16:51 | 40.64691 | 14.08457 | 34030 ft | 455 kts | 336° |
| 2026-05-06 16:52 | 40.70746 | 14.05999 | 34046 ft | 456 kts | 336° |
| 2026-05-06 16:52 | 40.76777 | 14.03553 | 34037 ft | 457 kts | 336° |
| 2026-05-06 16:53 | 40.82860 | 14.01077 | 34021 ft | 458 kts | 336° |
| 2026-05-06 16:53 | 40.88954 | 13.98594 | 34026 ft | 459 kts | 336° |
| 2026-05-06 16:54 | 40.95058 | 13.96106 | 34022 ft | 459 kts | 336° |
| 2026-05-06 16:54 | 41.01131 | 13.93618 | 34009 ft | 461 kts | 336° |
| 2026-05-06 16:55 | 41.07258 | 13.91098 | 34018 ft | 461 kts | 336° |
| 2026-05-06 16:55 | 41.13393 | 13.88569 | 34020 ft | 462 kts | 336° |
| 2026-05-06 16:56 | 41.19533 | 13.86041 | 34032 ft | 462 kts | 335° |
| 2026-05-06 16:56 | 41.25666 | 13.83523 | 34039 ft | 461 kts | 335° |
| 2026-05-06 16:57 | 41.31750 | 13.81015 | 34035 ft | 461 kts | 335° |
| 2026-05-06 16:57 | 41.37877 | 13.78481 | 34046 ft | 460 kts | 334° |
| 2026-05-06 16:58 | 41.43988 | 13.75940 | 34035 ft | 460 kts | 334° |
| 2026-05-06 16:58 | 41.50053 | 13.73410 | 34032 ft | 459 kts | 334° |
| 2026-05-06 16:59 | 41.56158 | 13.70872 | 34031 ft | 459 kts | 334° |
| 2026-05-06 16:59 | 41.62255 | 13.68335 | 34044 ft | 458 kts | 333° |
| 2026-05-06 17:00 | 41.68342 | 13.65792 | 34030 ft | 458 kts | 334° |
| 2026-05-06 17:00 | 41.74386 | 13.63259 | 34024 ft | 459 kts | 333° |
| 2026-05-06 17:01 | 41.80477 | 13.60693 | 34043 ft | 459 kts | 333° |
| 2026-05-06 17:01 | 41.86574 | 13.58130 | 34027 ft | 459 kts | 333° |
| 2026-05-06 17:02 | 41.92661 | 13.55564 | 34009 ft | 459 kts | 333° |
| 2026-05-06 17:02 | 41.98755 | 13.52981 | 33999 ft | 459 kts | 333° |
| 2026-05-06 17:03 | 42.04812 | 13.50418 | 33999 ft | 460 kts | 333° |
| 2026-05-06 17:03 | 42.10920 | 13.47832 | 33994 ft | 461 kts | 333° |
| 2026-05-06 17:04 | 42.17046 | 13.45229 | 33986 ft | 462 kts | 333° |
| 2026-05-06 17:04 | 42.23185 | 13.42618 | 33991 ft | 463 kts | 333° |
| 2026-05-06 17:05 | 42.29287 | 13.40020 | 33984 ft | 462 kts | 334° |
| 2026-05-06 17:05 | 42.35420 | 13.37401 | 33973 ft | 463 kts | 334° |
| 2026-05-06 17:06 | 42.41575 | 13.34752 | 33988 ft | 465 kts | 334° |
| 2026-05-06 17:06 | 42.47746 | 13.32107 | 34019 ft | 466 kts | 334° |
| 2026-05-06 17:07 | 42.53874 | 13.29479 | 34002 ft | 465 kts | 334° |
| 2026-05-06 17:07 | 42.60045 | 13.26816 | 33998 ft | 465 kts | 334° |
| 2026-05-06 17:08 | 42.66211 | 13.24150 | 34008 ft | 465 kts | 334° |
| 2026-05-06 17:08 | 42.72376 | 13.21497 | 33993 ft | 464 kts | 333° |
| 2026-05-06 17:09 | 42.78492 | 13.18839 | 33998 ft | 465 kts | 333° |
| 2026-05-06 17:09 | 42.84649 | 13.16154 | 34003 ft | 465 kts | 333° |
| 2026-05-06 17:10 | 42.90809 | 13.13469 | 34003 ft | 464 kts | 333° |
| 2026-05-06 17:10 | 42.96976 | 13.10779 | 33973 ft | 465 kts | 333° |
| 2026-05-06 17:11 | 43.03109 | 13.08094 | 33955 ft | 467 kts | 333° |
| 2026-05-06 17:11 | 43.09296 | 13.05381 | 33970 ft | 467 kts | 333° |
| 2026-05-06 17:12 | 43.15486 | 13.02664 | 33974 ft | 467 kts | 333° |
| 2026-05-06 17:12 | 43.21676 | 12.99946 | 33963 ft | 467 kts | 333° |
| 2026-05-06 17:13 | 43.27863 | 12.97218 | 33959 ft | 467 kts | 333° |
| 2026-05-06 17:13 | 43.33999 | 12.94501 | 33960 ft | 465 kts | 333° |
| 2026-05-06 17:14 | 43.40159 | 12.91771 | 33945 ft | 465 kts | 333° |
| 2026-05-06 17:14 | 43.46320 | 12.89037 | 33941 ft | 465 kts | 333° |
| 2026-05-06 17:15 | 43.52483 | 12.86290 | 33963 ft | 466 kts | 334° |
| 2026-05-06 17:15 | 43.58611 | 12.83560 | 33946 ft | 466 kts | 334° |
| 2026-05-06 17:16 | 43.64781 | 12.80811 | 33936 ft | 466 kts | 334° |
| 2026-05-06 17:16 | 43.70954 | 12.78048 | 33942 ft | 466 kts | 334° |
| 2026-05-06 17:17 | 43.77125 | 12.75272 | 33921 ft | 466 kts | 335° |
| 2026-05-06 17:17 | 43.83249 | 12.72518 | 33909 ft | 466 kts | 335° |
| 2026-05-06 17:18 | 43.89419 | 12.69735 | 33909 ft | 467 kts | 335° |
| 2026-05-06 17:18 | 43.95594 | 12.66938 | 33910 ft | 467 kts | 335° |
| 2026-05-06 17:19 | 44.01778 | 12.64145 | 33912 ft | 468 kts | 335° |
| 2026-05-06 17:19 | 44.07927 | 12.61367 | 33912 ft | 468 kts | 335° |
| 2026-05-06 17:20 | 44.14113 | 12.58553 | 33910 ft | 468 kts | 335° |
| 2026-05-06 17:20 | 44.20297 | 12.55725 | 33931 ft | 468 kts | 335° |
| 2026-05-06 17:21 | 44.26478 | 12.52901 | 33935 ft | 467 kts | 335° |
| 2026-05-06 17:21 | 44.32621 | 12.50100 | 33933 ft | 468 kts | 334° |
| 2026-05-06 17:22 | 44.38810 | 12.47267 | 33922 ft | 468 kts | 334° |
| 2026-05-06 17:22 | 44.44997 | 12.44410 | 33939 ft | 469 kts | 334° |
| 2026-05-06 17:23 | 44.51198 | 12.41546 | 33923 ft | 470 kts | 334° |
| 2026-05-06 17:23 | 44.57373 | 12.38697 | 33915 ft | 470 kts | 334° |
| 2026-05-06 17:24 | 44.63588 | 12.35821 | 33909 ft | 470 kts | 334° |
| 2026-05-06 17:24 | 44.69801 | 12.32930 | 33906 ft | 470 kts | 334° |
| 2026-05-06 17:25 | 44.76015 | 12.30047 | 33918 ft | 470 kts | 334° |
| 2026-05-06 17:25 | 44.82227 | 12.27160 | 33911 ft | 470 kts | 334° |
| 2026-05-06 17:26 | 44.88396 | 12.24288 | 33899 ft | 471 kts | 334° |
| 2026-05-06 17:26 | 44.94624 | 12.21366 | 33892 ft | 472 kts | 334° |
| 2026-05-06 17:27 | 45.00854 | 12.18432 | 33887 ft | 472 kts | 334° |
| 2026-05-06 17:27 | 45.07086 | 12.15492 | 33888 ft | 472 kts | 334° |
| 2026-05-06 17:28 | 45.12269 | 12.13053 | 33892 ft | 472 kts | 334° |
| 2026-05-06 17:28 | 45.19529 | 12.09630 | 33901 ft | 473 kts | 334° |
| 2026-05-06 17:29 | 45.25775 | 12.06668 | 33894 ft | 474 kts | 334° |
| 2026-05-06 17:29 | 45.32036 | 12.03697 | 33897 ft | 475 kts | 334° |
| 2026-05-06 17:30 | 45.37251 | 12.01222 | 33887 ft | 476 kts | 334° |
| 2026-05-06 17:30 | 45.44563 | 11.97738 | 33887 ft | 477 kts | 334° |
| 2026-05-06 17:31 | 45.50859 | 11.94730 | 33896 ft | 478 kts | 334° |
| 2026-05-06 17:31 | 45.56103 | 11.92220 | 33935 ft | 478 kts | 333° |
| 2026-05-06 17:32 | 45.62411 | 11.89188 | 33931 ft | 479 kts | 333° |
| 2026-05-06 17:32 | 45.69753 | 11.85647 | 33932 ft | 479 kts | 333° |
| 2026-05-06 17:33 | 45.75042 | 11.83090 | 33974 ft | 479 kts | 333° |
| 2026-05-06 17:33 | 45.81320 | 11.80059 | 33927 ft | 479 kts | 333° |
| 2026-05-06 17:34 | 45.87647 | 11.77003 | 33929 ft | 480 kts | 333° |
| 2026-05-06 17:34 | 45.93975 | 11.73936 | 33928 ft | 480 kts | 333° |
| 2026-05-06 17:35 | 46.00303 | 11.70851 | 33936 ft | 480 kts | 333° |
| 2026-05-06 17:35 | 46.06578 | 11.67795 | 33929 ft | 479 kts | 333° |
| 2026-05-06 17:36 | 46.16048 | 11.63148 | 33929 ft | 480 kts | 333° |
| 2026-05-06 17:36 | 46.22559 | 11.60745 | 33915 ft | 487 kts | 341° |
| 2026-05-06 17:37 | 46.29199 | 11.58744 | 33914 ft | 487 kts | 341° |
| 2026-05-06 17:37 | 46.35786 | 11.56756 | 33908 ft | 487 kts | 341° |
| 2026-05-06 17:38 | 46.42426 | 11.54742 | 33893 ft | 486 kts | 341° |
| 2026-05-06 17:38 | 46.49053 | 11.52709 | 33897 ft | 487 kts | 341° |
| 2026-05-06 17:39 | 46.55681 | 11.50682 | 33896 ft | 486 kts | 341° |
| 2026-05-06 17:39 | 46.62260 | 11.48668 | 33891 ft | 486 kts | 341° |
| 2026-05-06 17:40 | 46.68875 | 11.46641 | 33891 ft | 486 kts | 341° |
| 2026-05-06 17:40 | 46.75490 | 11.44612 | 33940 ft | 486 kts | 341° |
| 2026-05-06 17:41 | 46.82076 | 11.42580 | 33865 ft | 482 kts | 341° |
| 2026-05-06 17:41 | 46.88652 | 11.40545 | 33869 ft | 483 kts | 341° |
| 2026-05-06 17:42 | 46.95184 | 11.38525 | 33856 ft | 483 kts | 341° |
| 2026-05-06 17:42 | 47.01940 | 11.37573 | 33852 ft | 494 kts | 353° |
| 2026-05-06 17:43 | 47.08816 | 11.37520 | 33831 ft | 494 kts | 353° |
| 2026-05-06 17:43 | 47.15702 | 11.37481 | 33794 ft | 495 kts | 353° |
| 2026-05-06 17:44 | 47.22584 | 11.37427 | 33792 ft | 495 kts | 354° |
| 2026-05-06 17:44 | 47.29422 | 11.37347 | 33815 ft | 494 kts | 354° |
| 2026-05-06 17:45 | 47.36284 | 11.37265 | 33819 ft | 493 kts | 354° |
| 2026-05-06 17:45 | 47.43140 | 11.37194 | 33821 ft | 492 kts | 354° |
| 2026-05-06 17:46 | 47.49958 | 11.37126 | 33821 ft | 489 kts | 354° |
| 2026-05-06 17:46 | 47.56758 | 11.37058 | 33830 ft | 489 kts | 354° |
| 2026-05-06 17:47 | 47.63509 | 11.36995 | 33870 ft | 488 kts | 354° |
| 2026-05-06 17:47 | 47.70300 | 11.36933 | 33877 ft | 487 kts | 355° |
| 2026-05-06 17:48 | 47.77067 | 11.36871 | 33876 ft | 486 kts | 354° |
| 2026-05-06 17:48 | 47.83825 | 11.36787 | 33887 ft | 485 kts | 354° |
| 2026-05-06 17:49 | 47.90512 | 11.36054 | 33885 ft | 481 kts | 349° |
| 2026-05-06 17:49 | 47.97153 | 11.35064 | 33880 ft | 480 kts | 349° |
| 2026-05-06 17:50 | 48.03761 | 11.34082 | 33880 ft | 480 kts | 349° |
| 2026-05-06 17:50 | 48.10402 | 11.33098 | 33890 ft | 479 kts | 349° |
| 2026-05-06 17:51 | 48.17040 | 11.32122 | 33882 ft | 480 kts | 349° |
| 2026-05-06 17:51 | 48.23682 | 11.31142 | 33875 ft | 479 kts | 349° |
| 2026-05-06 17:52 | 48.30275 | 11.30162 | 33862 ft | 479 kts | 349° |
| 2026-05-06 17:52 | 48.36911 | 11.29156 | 33842 ft | 479 kts | 349° |
| 2026-05-06 17:53 | 48.43547 | 11.28148 | 33830 ft | 479 kts | 349° |
| 2026-05-06 17:53 | 48.50181 | 11.27080 | 33834 ft | 478 kts | 344° |
| 2026-05-06 17:54 | 48.53321 | 11.25640 | 33498 ft | 466 kts | 329° |
| 2026-05-06 17:54 | 48.56180 | 11.23461 | 33114 ft | 457 kts | 327° |
| 2026-05-06 17:54 | 48.58980 | 11.21249 | 32712 ft | 452 kts | 326° |
| 2026-05-06 17:54 | 48.61708 | 11.19072 | 32320 ft | 448 kts | 326° |
| 2026-05-06 17:55 | 48.64450 | 11.16877 | 31938 ft | 444 kts | 326° |
| 2026-05-06 17:55 | 48.67176 | 11.14697 | 31803 ft | 442 kts | 326° |
| 2026-05-06 17:55 | 48.72620 | 11.10347 | 31843 ft | 443 kts | 326° |
| 2026-05-06 17:56 | 48.78082 | 11.05989 | 31835 ft | 444 kts | 326° |
| 2026-05-06 17:56 | 48.83550 | 11.01633 | 31759 ft | 445 kts | 327° |
| 2026-05-06 17:57 | 48.86292 | 10.99448 | 31331 ft | 443 kts | 328° |
| 2026-05-06 17:57 | 48.89008 | 10.97281 | 30869 ft | 440 kts | 328° |
| 2026-05-06 17:57 | 48.91706 | 10.95123 | 30398 ft | 437 kts | 328° |
| 2026-05-06 17:57 | 48.94384 | 10.92973 | 29953 ft | 434 kts | 328° |
| 2026-05-06 17:58 | 48.97010 | 10.90860 | 29424 ft | 431 kts | 328° |
| 2026-05-06 17:58 | 48.99649 | 10.88735 | 28885 ft | 428 kts | 328° |
| 2026-05-06 17:58 | 49.02272 | 10.86619 | 28359 ft | 425 kts | 328° |
| 2026-05-06 17:58 | 49.04872 | 10.84517 | 27843 ft | 422 kts | 328° |
| 2026-05-06 17:59 | 49.07451 | 10.82433 | 27335 ft | 418 kts | 328° |
| 2026-05-06 17:59 | 49.10018 | 10.80359 | 26858 ft | 415 kts | 328° |
| 2026-05-06 17:59 | 49.12558 | 10.78302 | 26366 ft | 412 kts | 328° |
| 2026-05-06 17:59 | 49.15084 | 10.76254 | 25883 ft | 409 kts | 328° |
| 2026-05-06 18:00 | 49.17581 | 10.74219 | 25498 ft | 404 kts | 327° |
| 2026-05-06 18:00 | 49.19860 | 10.71895 | 25083 ft | 395 kts | 317° |
| 2026-05-06 18:00 | 49.21855 | 10.69065 | 24666 ft | 388 kts | 309° |
| 2026-05-06 18:00 | 49.23727 | 10.66097 | 24262 ft | 388 kts | 311° |
| 2026-05-06 18:01 | 49.25607 | 10.63136 | 23864 ft | 387 kts | 311° |
| 2026-05-06 18:01 | 49.27479 | 10.60199 | 23463 ft | 384 kts | 310° |
| 2026-05-06 18:01 | 49.29336 | 10.57283 | 23009 ft | 380 kts | 310° |
| 2026-05-06 18:01 | 49.31171 | 10.54391 | 22540 ft | 377 kts | 310° |
| 2026-05-06 18:02 | 49.32986 | 10.51521 | 22092 ft | 373 kts | 310° |
| 2026-05-06 18:02 | 49.34787 | 10.48671 | 21697 ft | 371 kts | 310° |
| 2026-05-06 18:02 | 49.36485 | 10.45732 | 21298 ft | 365 kts | 302° |
| 2026-05-06 18:02 | 49.37963 | 10.42488 | 20907 ft | 378 kts | 301° |
| 2026-05-06 18:03 | 49.39473 | 10.39151 | 20526 ft | 382 kts | 301° |
| 2026-05-06 18:03 | 49.40988 | 10.35824 | 20136 ft | 381 kts | 302° |
| 2026-05-06 18:03 | 49.42489 | 10.32541 | 19697 ft | 378 kts | 302° |
| 2026-05-06 18:03 | 49.43997 | 10.29253 | 19259 ft | 375 kts | 302° |
| 2026-05-06 18:04 | 49.45492 | 10.25988 | 18833 ft | 372 kts | 302° |
| 2026-05-06 18:04 | 49.46973 | 10.22740 | 18408 ft | 369 kts | 302° |
| 2026-05-06 18:04 | 49.48436 | 10.19517 | 17964 ft | 366 kts | 302° |
| 2026-05-06 18:04 | 49.49887 | 10.16317 | 17523 ft | 363 kts | 302° |
| 2026-05-06 18:05 | 49.51328 | 10.13136 | 17125 ft | 361 kts | 302° |
| 2026-05-06 18:05 | 49.52758 | 10.09977 | 16732 ft | 359 kts | 302° |
| 2026-05-06 18:05 | 49.54181 | 10.06829 | 16338 ft | 356 kts | 302° |
| 2026-05-06 18:05 | 49.55589 | 10.03709 | 15958 ft | 354 kts | 302° |
| 2026-05-06 18:06 | 49.56969 | 10.00649 | 15583 ft | 352 kts | 302° |
| 2026-05-06 18:06 | 49.58358 | 9.97562 | 15208 ft | 349 kts | 302° |
| 2026-05-06 18:06 | 49.59737 | 9.94491 | 14836 ft | 348 kts | 302° |
| 2026-05-06 18:06 | 49.61110 | 9.91435 | 14474 ft | 345 kts | 303° |
| 2026-05-06 18:07 | 49.62471 | 9.88403 | 14112 ft | 343 kts | 303° |
| 2026-05-06 18:07 | 49.63817 | 9.85400 | 13753 ft | 338 kts | 303° |
| 2026-05-06 18:07 | 49.65142 | 9.82444 | 13363 ft | 332 kts | 303° |
| 2026-05-06 18:07 | 49.66496 | 9.79597 | 12957 ft | 327 kts | 311° |
| 2026-05-06 18:08 | 49.68122 | 9.77174 | 12559 ft | 324 kts | 315° |
| 2026-05-06 18:08 | 49.69748 | 9.74792 | 12171 ft | 319 kts | 314° |
| 2026-05-06 18:08 | 49.71324 | 9.72476 | 11789 ft | 315 kts | 314° |
| 2026-05-06 18:08 | 49.72897 | 9.70160 | 11408 ft | 311 kts | 314° |
| 2026-05-06 18:09 | 49.74453 | 9.67870 | 11037 ft | 307 kts | 314° |
| 2026-05-06 18:09 | 49.75979 | 9.65627 | 10786 ft | 298 kts | 314° |
| 2026-05-06 18:09 | 49.77462 | 9.63450 | 10792 ft | 292 kts | 314° |
| 2026-05-06 18:09 | 49.78934 | 9.61279 | 10802 ft | 292 kts | 314° |
| 2026-05-06 18:10 | 49.80407 | 9.59104 | 10805 ft | 292 kts | 314° |
| 2026-05-06 18:10 | 49.81878 | 9.56931 | 10807 ft | 292 kts | 314° |
| 2026-05-06 18:10 | 49.83347 | 9.54759 | 10812 ft | 292 kts | 314° |
| 2026-05-06 18:10 | 49.84814 | 9.52583 | 10807 ft | 292 kts | 314° |
| 2026-05-06 18:11 | 49.86282 | 9.50403 | 10812 ft | 292 kts | 314° |
| 2026-05-06 18:11 | 49.87730 | 9.48255 | 10598 ft | 292 kts | 314° |
| 2026-05-06 18:11 | 49.89192 | 9.46089 | 10303 ft | 289 kts | 314° |
| 2026-05-06 18:11 | 49.90643 | 9.43938 | 10006 ft | 288 kts | 314° |
| 2026-05-06 18:12 | 49.92086 | 9.41795 | 9647 ft | 286 kts | 314° |
| 2026-05-06 18:12 | 49.93521 | 9.39660 | 9242 ft | 285 kts | 314° |
| 2026-05-06 18:12 | 49.94945 | 9.37543 | 8849 ft | 282 kts | 314° |
| 2026-05-06 18:12 | 49.96358 | 9.35439 | 8465 ft | 280 kts | 313° |
| 2026-05-06 18:13 | 49.97757 | 9.33349 | 8105 ft | 278 kts | 313° |
| 2026-05-06 18:13 | 49.99144 | 9.31278 | 7765 ft | 276 kts | 313° |
| 2026-05-06 18:13 | 50.00523 | 9.29219 | 7438 ft | 274 kts | 313° |
| 2026-05-06 18:13 | 50.01894 | 9.27186 | 7118 ft | 272 kts | 316° |
| 2026-05-06 18:14 | 50.03486 | 9.25605 | 6792 ft | 273 kts | 334° |
| 2026-05-06 18:14 | 50.05324 | 9.24836 | 6468 ft | 276 kts | 352° |
| 2026-05-06 18:14 | 50.07227 | 9.24967 | 6157 ft | 280 kts | 9° |
| 2026-05-06 18:14 | 50.09060 | 9.26003 | 5822 ft | 282 kts | 24° |
| 2026-05-06 18:15 | 50.10890 | 9.26970 | 5486 ft | 275 kts | 2° |
| 2026-05-06 18:15 | 50.12731 | 9.26622 | 5189 ft | 263 kts | 338° |
| 2026-05-06 18:15 | 50.14416 | 9.25630 | 5025 ft | 254 kts | 334° |
| 2026-05-06 18:15 | 50.16020 | 9.24604 | 5006 ft | 248 kts | 334° |
| 2026-05-06 18:16 | 50.17612 | 9.23569 | 5003 ft | 247 kts | 334° |
| 2026-05-06 18:16 | 50.19167 | 9.22449 | 5000 ft | 244 kts | 322° |
| 2026-05-06 18:16 | 50.20167 | 9.20434 | 5012 ft | 236 kts | 283° |
| 2026-05-06 18:16 | 50.20183 | 9.17925 | 5009 ft | 234 kts | 256° |
| 2026-05-06 18:17 | 50.19685 | 9.15511 | 5006 ft | 234 kts | 248° |
| 2026-05-06 18:17 | 50.19055 | 9.13197 | 5007 ft | 235 kts | 246° |
| 2026-05-06 18:17 | 50.18403 | 9.10881 | 4994 ft | 229 kts | 246° |
| 2026-05-06 18:17 | 50.17759 | 9.08646 | 5008 ft | 225 kts | 244° |
| 2026-05-06 18:18 | 50.17121 | 9.06422 | 5010 ft | 224 kts | 248° |
| 2026-05-06 18:18 | 50.16584 | 9.04230 | 5002 ft | 208 kts | 249° |
| 2026-05-06 18:18 | 50.16098 | 9.02154 | 5022 ft | 203 kts | 250° |
| 2026-05-06 18:18 | 50.15615 | 9.00082 | 5014 ft | 203 kts | 250° |
| 2026-05-06 18:19 | 50.15133 | 8.98021 | 5014 ft | 202 kts | 250° |
| 2026-05-06 18:19 | 50.14652 | 8.95964 | 5011 ft | 202 kts | 250° |
| 2026-05-06 18:19 | 50.14169 | 8.93901 | 5010 ft | 202 kts | 250° |
| 2026-05-06 18:19 | 50.13692 | 8.91868 | 5012 ft | 202 kts | 249° |
| 2026-05-06 18:20 | 50.13209 | 8.89809 | 5010 ft | 203 kts | 250° |
| 2026-05-06 18:20 | 50.12730 | 8.87773 | 5009 ft | 199 kts | 250° |
| 2026-05-06 18:20 | 50.12268 | 8.85805 | 4939 ft | 187 kts | 249° |
| 2026-05-06 18:20 | 50.11828 | 8.83935 | 4743 ft | 181 kts | 249° |
| 2026-05-06 18:21 | 50.11397 | 8.82105 | 4510 ft | 178 kts | 249° |
| 2026-05-06 18:21 | 50.10974 | 8.80314 | 4273 ft | 174 kts | 250° |
| 2026-05-06 18:21 | 50.10561 | 8.78562 | 4011 ft | 170 kts | 250° |
| 2026-05-06 18:21 | 50.10157 | 8.76850 | 3765 ft | 167 kts | 250° |
| 2026-05-06 18:22 | 50.09759 | 8.75166 | 3526 ft | 165 kts | 251° |
| 2026-05-06 18:22 | 50.09371 | 8.73528 | 3294 ft | 162 kts | 251° |
| 2026-05-06 18:22 | 50.08982 | 8.71883 | 3058 ft | 161 kts | 251° |
| 2026-05-06 18:22 | 50.08597 | 8.70258 | 2824 ft | 159 kts | 252° |
| 2026-05-06 18:23 | 50.08215 | 8.68646 | 2595 ft | 159 kts | 252° |
| 2026-05-06 18:23 | 50.07833 | 8.67034 | 2371 ft | 159 kts | 253° |
| 2026-05-06 18:23 | 50.07452 | 8.65432 | 2162 ft | 154 kts | 253° |
| 2026-05-06 18:23 | 50.07091 | 8.63913 | 1919 ft | 147 kts | 253° |
| 2026-05-06 18:24 | 50.06738 | 8.62427 | 1714 ft | 147 kts | 253° |
| 2026-05-06 18:24 | 50.06383 | 8.60933 | 1493 ft | 147 kts | 253° |
| 2026-05-06 18:24 | 50.06030 | 8.59452 | 1281 ft | 146 kts | 253° |
| 2026-05-06 18:24 | 50.05679 | 8.57976 | 1069 ft | 147 kts | 254° |
| 2026-05-06 18:25 | 50.05320 | 8.56471 | 850 ft | 149 kts | 251° |
| 2026-05-06 18:25 | 50.04963 | 8.54974 | 639 ft | 147 kts | 252° |
| 2026-05-06 18:25 | 50.04611 | 8.53494 | 428 ft | 145 kts | 253° |
| 2026-05-06 18:25 | 50.04276 | 8.52086 | 337 ft | 123 kts | 251° |
| 2026-05-06 18:26 | 50.04081 | 8.51280 | 328 ft | 36 kts | 249° |
| 2026-05-06 18:26 | 50.03990 | 8.51033 | 327 ft | 25 kts | 226° |
| 2026-05-06 18:26 | 50.03874 | 8.50877 | 324 ft | 19 kts | 218° |
| 2026-05-06 18:26 | 50.03791 | 8.50870 | 330 ft | 10 kts | 130° |
| 2026-05-06 18:27 | 50.03802 | 8.51009 | 332 ft | 19 kts | 70° |